createdAt,value
2023-11-10T00:02:00.203Z,20.87
2023-11-10T00:04:49.837Z,20.87
2023-11-10T00:07:35.684Z,20.88
2023-11-10T00:10:22.772Z,20.88
2023-11-10T00:13:08.265Z,20.87
2023-11-10T00:15:53.478Z,20.87
2023-11-10T00:18:38.921Z,20.88
2023-11-10T00:21:24.835Z,20.88
2023-11-10T00:24:10.334Z,20.86
2023-11-10T00:26:55.503Z,20.86
2023-11-10T00:29:45.256Z,20.86
2023-11-10T00:32:30.726Z,20.85
2023-11-10T00:35:16.071Z,20.85
2023-11-10T00:38:01.277Z,20.84
2023-11-10T00:40:46.710Z,20.84
2023-11-10T00:43:32.290Z,20.84
2023-11-10T00:46:18.272Z,20.83
2023-11-10T00:49:04.011Z,20.83
2023-11-10T00:51:49.936Z,20.83
2023-11-10T00:54:35.474Z,20.82
2023-11-10T00:57:20.780Z,20.81
2023-11-10T01:00:07.671Z,20.81
2023-11-10T01:02:56.040Z,20.82
2023-11-10T01:05:45.186Z,20.80
2023-11-10T01:08:30.383Z,20.79
2023-11-10T01:11:16.076Z,20.80
2023-11-10T01:14:01.487Z,20.79
2023-11-10T01:16:46.802Z,20.79
2023-11-10T01:19:33.406Z,20.79
2023-11-10T01:22:18.991Z,20.79
2023-11-10T01:25:13.452Z,20.79
2023-11-10T01:27:58.875Z,20.77
2023-11-10T01:30:44.337Z,20.77
2023-11-10T01:33:29.721Z,20.77
2023-11-10T01:36:15.137Z,20.76
2023-11-10T01:39:01.129Z,20.78
2023-11-10T01:41:46.416Z,20.76
2023-11-10T01:44:32.976Z,20.77
2023-11-10T01:47:18.347Z,20.76
2023-11-10T01:50:05.166Z,20.76
2023-11-10T01:52:50.547Z,20.75
2023-11-10T01:55:37.931Z,20.76
2023-11-10T01:58:24.065Z,20.74
2023-11-10T02:01:11.394Z,20.75
2023-11-10T02:03:56.951Z,20.75
2023-11-10T02:06:44.256Z,20.75
2023-11-10T02:09:30.230Z,20.74
2023-11-10T02:12:15.765Z,20.74
2023-11-10T02:15:02.926Z,20.73
2023-11-10T02:23:19.499Z,20.73
2023-11-10T02:26:05.058Z,20.73
2023-11-10T02:28:50.565Z,20.73
2023-11-10T02:31:36.177Z,20.73
2023-11-10T02:34:21.656Z,20.73
2023-11-10T02:37:09.003Z,20.72
2023-11-10T02:39:54.487Z,20.72
2023-11-10T02:42:40.393Z,20.73
2023-11-10T02:45:25.784Z,20.72
2023-11-10T02:48:11.317Z,20.71
2023-11-10T02:50:57.140Z,20.71
2023-11-10T02:53:42.966Z,20.71
2023-11-10T02:56:28.205Z,20.70
2023-11-10T02:59:14.255Z,20.70
2023-11-10T03:01:59.556Z,20.72
2023-11-10T03:04:46.296Z,20.71
2023-11-10T03:07:31.925Z,20.70
2023-11-10T03:10:18.097Z,20.71
2023-11-10T03:13:04.460Z,20.71
2023-11-10T03:15:49.970Z,20.71
2023-11-10T03:18:35.376Z,20.71
2023-11-10T03:21:20.720Z,20.71
2023-11-10T03:24:06.440Z,20.70
2023-11-10T03:26:51.678Z,20.70
2023-11-10T03:29:37.384Z,20.71
2023-11-10T03:32:22.946Z,20.70
2023-11-10T03:35:09.178Z,20.70
2023-11-10T03:37:54.850Z,20.69
2023-11-10T03:40:40.190Z,20.68
2023-11-10T03:43:26.841Z,20.70
2023-11-10T03:46:12.652Z,20.71
2023-11-10T03:48:58.234Z,20.69
2023-11-10T03:51:44.887Z,20.70
2023-11-10T03:54:30.574Z,20.70
2023-11-10T03:57:16.278Z,20.70
2023-11-10T04:00:02.006Z,20.70
2023-11-10T04:02:49.984Z,20.70
2023-11-10T04:05:35.218Z,20.70
2023-11-10T04:08:20.563Z,20.70
2023-11-10T04:11:05.956Z,20.70
2023-11-10T04:13:51.451Z,20.71
2023-11-10T04:16:37.004Z,20.70
2023-11-10T04:19:23.558Z,20.70
2023-11-10T04:22:09.205Z,20.71
2023-11-10T04:24:56.123Z,20.69
2023-11-10T04:27:42.617Z,20.70
2023-11-10T04:30:29.512Z,20.70
2023-11-10T04:33:14.998Z,20.70
2023-11-10T04:36:00.253Z,20.69
2023-11-10T04:38:48.826Z,20.69
2023-11-10T04:41:34.555Z,20.70
2023-11-10T04:44:19.795Z,20.69
2023-11-10T04:47:05.114Z,20.68
2023-11-10T04:49:50.441Z,20.69
2023-11-10T04:52:37.078Z,20.68
2023-11-10T04:55:23.097Z,20.69
2023-11-10T04:58:08.180Z,20.68
2023-11-10T05:00:53.702Z,20.67
2023-11-10T05:03:38.975Z,20.69
2023-11-10T05:06:31.098Z,20.70
2023-11-10T05:09:16.728Z,20.72
2023-11-10T05:12:02.358Z,20.72
2023-11-10T05:14:47.605Z,20.73
2023-11-10T05:17:40.016Z,20.75
2023-11-10T05:20:25.531Z,20.74
2023-11-10T05:23:10.866Z,20.77
2023-11-10T05:25:57.067Z,20.73
2023-11-10T05:28:42.300Z,20.75
2023-11-10T05:31:27.602Z,20.74
2023-11-10T05:34:13.597Z,20.75
2023-11-10T05:36:59.029Z,20.76
2023-11-10T05:39:44.477Z,20.80
2023-11-10T05:42:29.967Z,20.83
2023-11-10T05:45:15.780Z,20.85
2023-11-10T05:48:01.379Z,20.86
2023-11-10T05:50:48.926Z,20.86
2023-11-10T05:53:34.241Z,20.85
2023-11-10T05:56:23.375Z,20.87
2023-11-10T05:59:09.971Z,20.87
2023-11-10T06:01:59.044Z,20.89
2023-11-10T06:04:45.503Z,20.87
2023-11-10T06:07:32.488Z,20.93
2023-11-10T06:10:18.708Z,20.96
2023-11-10T06:13:05.247Z,20.99
2023-11-10T06:15:51.277Z,21.01
2023-11-10T06:18:36.707Z,21.04
2023-11-10T06:21:24.340Z,21.05
2023-11-10T06:24:10.016Z,21.05
2023-11-10T06:26:55.312Z,21.03
2023-11-10T06:29:40.817Z,21.03
2023-11-10T06:32:27.579Z,21.00
2023-11-10T06:35:13.089Z,20.98
2023-11-10T06:37:58.491Z,20.99
2023-11-10T06:40:43.730Z,20.96
2023-11-10T06:43:29.245Z,20.94
2023-11-10T06:46:24.050Z,20.90
2023-11-10T06:49:09.695Z,20.91
2023-11-10T06:51:55.052Z,20.86
2023-11-10T06:54:40.574Z,20.84
2023-11-10T06:57:27.507Z,20.85
2023-11-10T07:00:13.201Z,20.83
2023-11-10T07:03:00.928Z,20.82
2023-11-10T07:05:46.107Z,20.80
2023-11-10T07:08:32.733Z,20.80
2023-11-10T07:11:18.414Z,20.77
2023-11-10T07:14:04.153Z,20.79
2023-11-10T07:16:50.979Z,20.76
2023-11-10T07:19:36.871Z,20.76
2023-11-10T07:22:21.989Z,20.75
2023-11-10T07:25:08.057Z,20.74
2023-11-10T07:27:54.573Z,20.73
2023-11-10T07:30:41.021Z,20.72
2023-11-10T07:33:26.612Z,20.72
2023-11-10T07:36:12.678Z,20.70
2023-11-10T07:38:58.317Z,20.70
2023-11-10T07:41:43.593Z,20.67
2023-11-10T07:44:29.328Z,20.67
2023-11-10T07:47:14.536Z,20.67
2023-11-10T07:50:00.064Z,20.67
2023-11-10T07:52:49.689Z,20.66
2023-11-10T07:55:34.831Z,20.63
2023-11-10T07:58:20.069Z,20.63
2023-11-10T08:01:05.446Z,20.62
2023-11-10T08:03:51.249Z,20.61
2023-11-10T08:06:37.658Z,20.59
2023-11-10T08:09:23.169Z,20.57
2023-11-10T08:12:08.737Z,20.56
2023-11-10T08:14:55.836Z,20.55
2023-11-10T08:17:41.471Z,20.57
2023-11-10T08:20:27.647Z,20.55
2023-11-10T08:23:15.346Z,20.54
2023-11-10T08:26:00.692Z,20.54
2023-11-10T08:28:45.931Z,20.54
2023-11-10T08:31:31.390Z,20.54
2023-11-10T08:34:17.862Z,20.54
2023-11-10T08:37:03.543Z,20.54
2023-11-10T08:39:49.258Z,20.53
2023-11-10T08:42:34.745Z,20.53
2023-11-10T08:45:20.152Z,20.53
2023-11-10T08:48:05.661Z,20.53
2023-11-10T08:50:51.300Z,20.53
2023-11-10T08:53:38.195Z,20.52
2023-11-10T08:56:24.197Z,20.51
2023-11-10T08:59:10.408Z,20.51
2023-11-10T09:01:55.799Z,20.50
2023-11-10T09:04:41.049Z,20.50
2023-11-10T09:07:28.430Z,20.49
2023-11-10T09:10:13.897Z,20.48
2023-11-10T09:12:59.603Z,20.48
2023-11-10T09:15:47.411Z,20.47
2023-11-10T09:18:37.954Z,20.46
2023-11-10T09:21:23.119Z,20.45
2023-11-10T09:24:08.929Z,20.44
2023-11-10T09:26:54.425Z,20.45
2023-11-10T09:29:41.212Z,20.43
2023-11-10T09:32:26.914Z,20.44
2023-11-10T09:35:17.845Z,20.42
2023-11-10T09:38:04.710Z,20.42
2023-11-10T09:40:51.098Z,20.42
2023-11-10T09:43:37.103Z,20.42
2023-11-10T09:46:24.180Z,20.41
2023-11-10T09:49:10.307Z,20.41
2023-11-10T09:51:56.290Z,20.42
2023-11-10T09:54:43.775Z,20.42
2023-11-10T09:57:31.494Z,20.42
2023-11-10T10:00:19.886Z,20.42
2023-11-10T10:03:06.479Z,20.41
2023-11-10T10:05:52.618Z,20.41
2023-11-10T10:08:38.127Z,20.42
2023-11-10T10:11:24.269Z,20.43
2023-11-10T10:14:09.954Z,20.43
2023-11-10T10:16:56.622Z,20.42
2023-11-10T10:19:42.109Z,20.42
2023-11-10T10:22:27.639Z,20.40
2023-11-10T10:25:14.092Z,20.41
2023-11-10T10:28:03.281Z,20.40
2023-11-10T10:30:49.125Z,20.39
2023-11-10T10:33:35.392Z,20.40
2023-11-10T10:36:20.884Z,20.38
2023-11-10T10:39:11.700Z,20.38
2023-11-10T10:42:00.951Z,20.38
2023-11-10T10:44:47.014Z,20.35
2023-11-10T10:47:35.534Z,20.36
2023-11-10T10:50:24.996Z,20.37
2023-11-10T10:53:13.960Z,20.37
2023-11-10T10:56:02.829Z,20.35
2023-11-10T10:58:48.489Z,20.34
2023-11-10T11:01:37.876Z,20.35
2023-11-10T11:04:34.206Z,20.34
2023-11-10T11:07:51.665Z,20.33
2023-11-10T11:10:58.105Z,20.32
2023-11-10T11:14:01.694Z,20.35
2023-11-10T11:17:07.765Z,20.35
2023-11-10T11:19:53.690Z,20.35
2023-11-10T11:22:39.695Z,20.34
2023-11-10T11:25:25.217Z,20.35
2023-11-10T11:28:10.488Z,20.35
2023-11-10T11:31:11.672Z,20.35
2023-11-10T11:34:03.974Z,20.35
2023-11-10T11:36:50.198Z,20.35
2023-11-10T11:39:36.267Z,20.34
2023-11-10T11:42:24.241Z,20.33
2023-11-10T11:45:16.826Z,20.34
2023-11-10T11:48:02.210Z,20.34
2023-11-10T11:50:53.247Z,20.33
2023-11-10T11:53:39.064Z,20.32
2023-11-10T11:56:24.377Z,20.33
2023-11-10T11:59:12.583Z,20.33
2023-11-10T12:01:57.949Z,20.32
2023-11-10T12:04:44.021Z,20.31
2023-11-10T12:07:33.078Z,20.31
2023-11-10T12:10:18.811Z,20.31
2023-11-10T12:13:04.359Z,20.31
2023-11-10T12:15:49.823Z,20.30
2023-11-10T12:18:37.093Z,20.30
2023-11-10T12:21:22.868Z,20.29
2023-11-10T12:24:09.855Z,20.28
2023-11-10T12:27:01.124Z,20.27
2023-11-10T12:29:46.816Z,20.28
2023-11-10T12:32:32.508Z,20.28
2023-11-10T12:35:21.185Z,20.29
2023-11-10T12:38:09.499Z,20.29
2023-11-10T12:40:56.606Z,20.29
2023-11-10T12:43:41.969Z,20.30
2023-11-10T12:46:27.532Z,20.29
2023-11-10T12:49:13.076Z,20.31
2023-11-10T12:52:11.375Z,20.29
2023-11-10T12:54:56.827Z,20.30
2023-11-10T12:57:42.201Z,20.30
2023-11-10T13:00:28.034Z,20.30
2023-11-10T13:03:13.774Z,20.29
2023-11-10T13:06:00.262Z,20.29
2023-11-10T13:08:45.456Z,20.29
2023-11-10T13:11:30.885Z,20.29
2023-11-10T13:14:16.769Z,20.28
2023-11-10T13:17:02.348Z,20.28
2023-11-10T13:19:47.969Z,20.26
2023-11-10T13:22:33.307Z,20.25
2023-11-10T13:25:19.808Z,20.26
2023-11-10T13:28:08.362Z,20.25
2023-11-10T13:30:54.970Z,20.25
2023-11-10T13:33:42.937Z,20.24
2023-11-10T13:36:28.513Z,20.24
2023-11-10T13:39:14.794Z,20.23
2023-11-10T13:42:00.712Z,20.23
2023-11-10T13:44:46.013Z,20.23
2023-11-10T13:47:31.566Z,20.23
2023-11-10T13:50:16.632Z,20.23
2023-11-10T13:53:02.117Z,20.24
2023-11-10T13:55:47.809Z,20.25
2023-11-10T13:58:34.614Z,20.25
2023-11-10T14:01:20.904Z,20.24
2023-11-10T14:04:07.745Z,20.24
2023-11-10T14:06:53.638Z,20.25
2023-11-10T14:09:39.433Z,20.24
2023-11-10T14:12:26.466Z,20.23
2023-11-10T14:15:15.960Z,20.24
2023-11-10T14:18:01.726Z,20.24
2023-11-10T14:20:48.134Z,20.22
2023-11-10T14:23:33.752Z,20.22
2023-11-10T14:26:19.084Z,20.21
2023-11-10T14:29:04.587Z,20.21
2023-11-10T14:31:49.971Z,20.21
2023-11-10T14:34:39.821Z,20.20
2023-11-10T14:37:26.239Z,20.19
2023-11-10T14:40:29.198Z,20.19
2023-11-10T14:43:20.236Z,20.18
2023-11-10T14:46:09.779Z,20.16
2023-11-10T14:48:56.063Z,20.16
2023-11-10T14:51:46.592Z,20.17
2023-11-10T14:54:35.192Z,20.17
2023-11-10T14:57:20.549Z,20.15
2023-11-10T15:00:07.152Z,20.15
2023-11-10T15:02:53.489Z,20.15
2023-11-10T15:05:39.123Z,20.15
2023-11-10T15:08:27.984Z,20.15
2023-11-10T15:11:14.265Z,20.13
2023-11-10T15:14:00.347Z,20.20
2023-11-10T15:16:49.917Z,20.20
2023-11-10T15:19:36.167Z,20.22
2023-11-10T15:22:21.454Z,20.24
2023-11-10T15:25:11.029Z,20.30
2023-11-10T15:27:57.570Z,20.34
2023-11-10T15:30:46.891Z,20.38
2023-11-10T15:33:36.098Z,20.43
2023-11-10T15:36:21.515Z,20.47
2023-11-10T15:41:58.400Z,20.54
2023-11-10T15:44:47.092Z,20.59
2023-11-10T15:47:33.768Z,20.60
2023-11-10T15:50:19.428Z,20.63
2023-11-10T15:53:05.296Z,20.65
2023-11-10T15:55:50.720Z,20.69
2023-11-10T15:58:36.597Z,20.70
2023-11-10T16:01:22.700Z,20.75
2023-11-10T16:04:08.502Z,20.75
2023-11-10T16:06:53.931Z,20.74
2023-11-10T16:09:39.222Z,20.73
2023-11-10T16:12:27.298Z,20.70
2023-11-10T16:15:13.060Z,20.68
2023-11-10T16:17:59.384Z,20.65
2023-11-10T16:20:44.649Z,20.63
2023-11-10T16:23:29.924Z,20.60
2023-11-10T16:26:19.470Z,20.59
2023-11-10T16:29:06.941Z,20.57
2023-11-10T16:31:53.415Z,20.56
2023-11-10T16:34:38.612Z,20.53
2023-11-10T16:37:23.989Z,20.54
2023-11-10T16:40:11.508Z,20.52
2023-11-10T16:42:58.823Z,20.50
2023-11-10T16:45:44.713Z,20.49
2023-11-10T16:48:31.058Z,20.49
2023-11-10T16:51:16.520Z,20.48
2023-11-10T16:54:01.728Z,20.48
2023-11-10T16:56:47.056Z,20.46
2023-11-10T16:59:34.329Z,20.46
2023-11-10T17:02:24.282Z,20.46
2023-11-10T17:05:16.323Z,20.45
2023-11-10T17:08:03.349Z,20.43
2023-11-10T17:10:48.775Z,20.42
2023-11-10T17:13:36.062Z,20.44
2023-11-10T17:16:21.724Z,20.44
2023-11-10T17:19:07.595Z,20.44
2023-11-10T17:21:54.159Z,20.44
2023-11-10T17:24:39.665Z,20.45
2023-11-10T17:27:24.973Z,20.45
2023-11-10T17:30:10.842Z,20.45
2023-11-10T17:32:56.712Z,20.46
2023-11-10T17:35:42.541Z,20.47
2023-11-10T17:38:27.994Z,20.47
2023-11-10T17:41:13.491Z,20.47
2023-11-10T17:44:00.232Z,20.48
2023-11-10T17:46:45.893Z,20.48
2023-11-10T17:49:31.099Z,20.49
2023-11-10T17:52:16.412Z,20.48
2023-11-10T17:55:01.691Z,20.48
2023-11-10T17:57:47.281Z,20.49
2023-11-10T18:00:32.581Z,20.47
2023-11-10T18:03:17.860Z,20.45
2023-11-10T18:06:05.854Z,20.45
2023-11-10T18:08:52.460Z,20.44
2023-11-10T18:11:37.447Z,20.42
2023-11-10T18:14:22.869Z,20.31
2023-11-10T18:17:08.380Z,20.29
2023-11-10T18:19:53.640Z,20.25
2023-11-10T18:22:39.081Z,20.20
2023-11-10T18:25:24.582Z,20.19
2023-11-10T18:28:09.964Z,20.21
2023-11-10T18:30:55.385Z,20.20
2023-11-10T18:33:40.536Z,20.19
2023-11-10T18:36:28.520Z,20.18
2023-11-10T18:39:14.145Z,20.18
2023-11-10T18:41:59.386Z,20.18
2023-11-10T18:44:44.685Z,20.17
2023-11-10T18:47:30.570Z,20.17
2023-11-10T18:50:16.035Z,20.14
2023-11-10T18:53:01.605Z,20.13
2023-11-10T18:55:47.151Z,20.12
2023-11-10T18:58:33.217Z,20.11
2023-11-10T19:01:18.170Z,20.11
2023-11-10T19:04:03.464Z,20.08
2023-11-10T19:06:49.639Z,20.07
2023-11-10T19:09:35.192Z,20.04
2023-11-10T19:12:20.579Z,20.03
2023-11-10T19:15:06.736Z,20.05
2023-11-10T19:17:52.437Z,20.04
2023-11-10T19:20:38.184Z,20.05
2023-11-10T19:23:23.519Z,20.03
2023-11-10T19:26:08.973Z,20.05
2023-11-10T19:28:54.610Z,20.05
2023-11-10T19:31:41.236Z,20.05
2023-11-10T19:34:26.630Z,20.04
2023-11-10T19:37:12.321Z,20.03
2023-11-10T19:39:57.803Z,20.02
2023-11-10T19:42:45.411Z,20.03
2023-11-10T19:45:31.156Z,20.00
2023-11-10T19:48:18.187Z,20.00
2023-11-10T19:52:22.821Z,19.98
2023-11-10T19:56:59.682Z,19.96
2023-11-10T20:00:57.574Z,19.94
2023-11-10T20:02:59.118Z,19.94
2023-11-10T20:05:44.800Z,19.93
2023-11-10T20:08:30.305Z,19.92
2023-11-10T20:11:19.908Z,19.92
2023-11-10T20:14:05.327Z,19.91
2023-11-10T20:16:51.280Z,19.91
2023-11-10T20:19:37.732Z,19.92
2023-11-10T20:22:23.305Z,19.92
2023-11-10T20:25:08.899Z,19.93
2023-11-10T20:27:54.020Z,19.93
2023-11-10T20:30:39.697Z,19.93
2023-11-10T20:33:25.190Z,19.93
2023-11-10T20:36:10.603Z,19.92
2023-11-10T20:38:56.077Z,19.93
2023-11-10T20:41:42.450Z,19.92
2023-11-10T20:44:28.109Z,19.92
2023-11-10T20:47:14.070Z,19.94
2023-11-10T20:49:59.853Z,19.92
2023-11-10T20:52:45.856Z,19.94
2023-11-10T20:55:31.585Z,19.98
2023-11-10T20:58:16.606Z,19.99
2023-11-10T21:01:02.024Z,19.99
2023-11-10T21:03:47.537Z,20.00
2023-11-10T21:06:32.740Z,20.00
2023-11-10T21:09:18.139Z,19.98
2023-11-10T21:12:04.963Z,19.98
2023-11-10T21:14:50.321Z,19.96
2023-11-10T21:17:35.763Z,19.96
2023-11-10T21:20:21.451Z,19.95
2023-11-10T21:23:11.762Z,19.92
2023-11-10T21:25:57.070Z,19.93
2023-11-10T21:28:42.611Z,19.95
2023-11-10T21:31:29.058Z,19.92
2023-11-10T21:34:14.529Z,19.92
2023-11-10T21:36:59.684Z,19.92
2023-11-10T21:39:45.560Z,19.93
2023-11-10T21:42:31.110Z,19.89
2023-11-10T21:45:16.832Z,19.89
2023-11-10T21:48:03.598Z,19.89
2023-11-10T21:50:49.262Z,19.89
2023-11-10T21:53:34.568Z,19.89
2023-11-10T21:56:20.785Z,19.91
2023-11-10T21:59:06.342Z,19.91
2023-11-10T22:01:51.708Z,19.90
2023-11-10T22:04:37.069Z,19.91
2023-11-10T22:07:22.740Z,19.91
2023-11-10T22:10:11.933Z,19.91
2023-11-10T22:12:56.810Z,19.91
2023-11-10T22:15:42.412Z,19.91
2023-11-10T22:18:28.158Z,19.88
2023-11-10T22:21:13.569Z,19.89
2023-11-10T22:23:58.903Z,19.90
2023-11-10T22:26:44.347Z,19.92
2023-11-10T22:29:29.693Z,19.90
2023-11-10T22:32:14.982Z,19.91
2023-11-10T22:35:00.382Z,19.89
2023-11-10T22:37:45.835Z,19.89
2023-11-10T22:40:31.393Z,19.89
2023-11-10T22:43:17.525Z,19.89
2023-11-10T22:46:02.887Z,19.89
2023-11-10T22:48:48.358Z,19.89
2023-11-10T22:51:33.909Z,19.86
2023-11-10T22:54:19.531Z,19.87
2023-11-10T22:57:05.230Z,19.88
2023-11-10T22:59:50.744Z,19.87
2023-11-10T23:02:36.679Z,19.87
2023-11-10T23:05:22.697Z,19.86
2023-11-10T23:08:09.757Z,19.85
2023-11-10T23:10:54.995Z,19.85
2023-11-10T23:13:42.511Z,19.84
2023-11-10T23:16:27.878Z,19.84
2023-11-10T23:19:13.209Z,19.84
2023-11-10T23:21:58.486Z,19.84
2023-11-10T23:24:44.665Z,19.83
2023-11-10T23:27:31.212Z,19.84
2023-11-10T23:30:18.733Z,19.83
2023-11-10T23:33:04.443Z,19.83
2023-11-10T23:35:58.969Z,19.83
2023-11-10T23:38:46.823Z,19.84
2023-11-10T23:41:32.492Z,19.84
2023-11-10T23:44:17.826Z,19.84
2023-11-10T23:47:03.387Z,19.83
2023-11-10T23:49:48.644Z,19.85
2023-11-10T23:52:34.281Z,19.84
2023-11-10T23:55:19.790Z,19.84
2023-11-10T23:58:08.500Z,19.83
